createdAt,value
2022-08-11T00:02:28.387Z,97513.00
2022-08-11T00:04:57.440Z,97512.59
2022-08-11T00:07:26.836Z,97514.63
2022-08-11T00:09:54.796Z,97519.25
2022-08-11T00:12:21.859Z,97515.63
2022-08-11T00:14:58.157Z,97515.00
2022-08-11T00:17:29.473Z,97513.97
2022-08-11T00:20:13.344Z,97508.28
2022-08-11T00:22:44.814Z,97503.94
2022-08-11T00:25:19.544Z,97508.81
2022-08-11T00:27:48.268Z,97509.44
2022-08-11T00:30:16.412Z,97513.13
2022-08-11T00:32:46.227Z,97512.72
2022-08-11T00:35:54.344Z,97510.25
2022-08-11T00:38:06.978Z,97511.19
2022-08-11T00:40:48.579Z,97513.44
2022-08-11T00:43:38.010Z,97515.25
2022-08-11T00:46:27.560Z,97517.84
2022-08-11T00:49:39.583Z,97502.31
2022-08-11T00:52:25.055Z,97508.00
2022-08-11T00:55:07.980Z,97504.75
2022-08-11T00:57:55.627Z,97500.03
2022-08-11T01:00:27.210Z,97507.41
2022-08-11T01:03:13.492Z,97516.84
2022-08-11T01:06:05.377Z,97507.50
2022-08-11T01:09:02.796Z,97511.16
2022-08-11T01:12:06.298Z,97509.25
2022-08-11T01:14:47.942Z,97507.25
2022-08-11T01:17:26.741Z,97501.53
2022-08-11T01:20:46.011Z,97506.38
2022-08-11T01:23:53.050Z,97509.84
2022-08-11T01:26:38.559Z,97500.25
2022-08-11T01:29:08.006Z,97500.91
2022-08-11T01:32:13.069Z,97506.81
2022-08-11T01:35:10.542Z,97499.19
2022-08-11T01:37:59.269Z,97500.19
2022-08-11T01:41:08.385Z,97504.06
2022-08-11T01:44:27.950Z,97493.66
2022-08-11T01:47:34.680Z,97505.38
2022-08-11T01:50:38.691Z,97496.47
2022-08-11T01:53:24.067Z,97501.06
2022-08-11T01:56:06.103Z,97506.69
2022-08-11T01:59:00.426Z,97502.84
2022-08-11T02:01:58.399Z,97499.63
2022-08-11T02:04:56.150Z,97496.31
2022-08-11T02:07:58.218Z,97493.06
2022-08-11T02:10:51.546Z,97496.59
2022-08-11T02:13:20.839Z,97493.81
2022-08-11T02:16:27.239Z,97499.09
2022-08-11T02:19:36.064Z,97493.63
2022-08-11T02:22:54.749Z,97492.00
2022-08-11T02:25:34.570Z,97484.84
2022-08-11T02:28:04.721Z,97489.38
2022-08-11T02:30:40.912Z,97496.69
2022-08-11T02:33:24.623Z,97494.63
2022-08-11T02:36:00.365Z,97496.22
2022-08-11T02:38:38.768Z,97493.00
2022-08-11T02:41:42.555Z,97494.59
2022-08-11T02:44:32.684Z,97503.66
2022-08-11T02:47:06.823Z,97496.91
2022-08-11T02:50:02.540Z,97498.47
2022-08-11T02:53:13.123Z,97492.59
2022-08-11T02:55:57.239Z,97500.56
2022-08-11T02:58:44.310Z,97504.50
2022-08-11T03:01:28.728Z,97501.94
2022-08-11T03:04:09.092Z,97501.06
2022-08-11T03:06:50.683Z,97492.84
2022-08-11T03:09:36.126Z,97502.63
2022-08-11T03:12:29.488Z,97490.41
2022-08-11T03:15:22.043Z,97497.28
2022-08-11T03:17:57.541Z,97501.63
2022-08-11T03:20:33.232Z,97498.53
2022-08-11T03:23:19.987Z,97503.38
2022-08-11T03:25:55.839Z,97509.50
2022-08-11T03:28:43.639Z,97509.00
2022-08-11T03:31:19.901Z,97506.97
2022-08-11T03:34:07.010Z,97513.47
2022-08-11T03:37:16.170Z,97509.78
2022-08-11T03:40:07.017Z,97509.75
2022-08-11T03:42:55.895Z,97504.47
2022-08-11T03:45:41.162Z,97510.66
2022-08-11T03:48:29.543Z,97514.59
2022-08-11T03:50:56.188Z,97509.47
2022-08-11T03:53:22.900Z,97511.75
2022-08-11T03:56:11.673Z,97506.69
2022-08-11T03:58:56.652Z,97506.97
2022-08-11T04:01:56.388Z,97509.06
2022-08-11T04:04:51.320Z,97506.63
2022-08-11T04:07:46.246Z,97509.06
2022-08-11T04:10:42.066Z,97507.06
2022-08-11T04:13:45.469Z,97501.13
2022-08-11T04:16:38.360Z,97505.34
2022-08-11T04:19:42.493Z,97497.84
2022-08-11T04:22:40.467Z,97506.97
2022-08-11T04:25:51.144Z,97507.59
2022-08-11T04:28:49.875Z,97509.41
2022-08-11T04:31:51.090Z,97514.06
2022-08-11T04:34:09.388Z,97510.88
2022-08-11T04:37:05.881Z,97512.19
2022-08-11T04:40:00.518Z,97510.13
2022-08-11T04:42:48.599Z,97524.50
2022-08-11T04:45:27.068Z,97520.03
2022-08-11T04:48:45.369Z,97516.44
2022-08-11T04:51:51.881Z,97511.97
2022-08-11T04:55:13.711Z,97515.28
2022-08-11T04:58:17.642Z,97521.53
2022-08-11T05:01:15.124Z,97526.03
2022-08-11T05:04:28.124Z,97519.06
2022-08-11T05:06:58.091Z,97516.38
2022-08-11T05:09:49.307Z,97516.03
2022-08-11T05:12:46.431Z,97516.69
2022-08-11T05:15:42.597Z,97517.72
2022-08-11T05:18:39.376Z,97519.34
2022-08-11T05:21:29.457Z,97515.81
2022-08-11T05:24:42.384Z,97519.84
2022-08-11T05:27:33.267Z,97518.91
2022-08-11T05:30:24.816Z,97514.66
2022-08-11T05:33:40.163Z,97514.25
2022-08-11T05:36:06.817Z,97506.69
2022-08-11T05:38:54.746Z,97505.47
2022-08-11T05:41:45.588Z,97510.88
2022-08-11T05:44:37.736Z,97511.13
2022-08-11T05:47:23.474Z,97508.47
2022-08-11T05:50:13.758Z,97502.97
2022-08-11T05:53:03.903Z,97510.19
2022-08-11T05:56:01.764Z,97502.78
2022-08-11T05:58:41.157Z,97511.66
2022-08-11T06:01:09.868Z,97510.78
2022-08-11T06:03:58.036Z,97508.03
2022-08-11T06:06:29.156Z,97513.63
2022-08-11T06:08:58.089Z,97511.50
2022-08-11T06:11:43.516Z,97515.56
2022-08-11T06:14:12.260Z,97511.25
2022-08-11T06:16:42.055Z,97515.47
2022-08-11T06:19:09.932Z,97520.88
2022-08-11T06:21:38.050Z,97511.56
2022-08-11T06:24:11.911Z,97512.13
2022-08-11T06:27:08.735Z,97512.53
2022-08-11T06:29:37.613Z,97500.44
2022-08-11T06:32:15.661Z,97503.25
2022-08-11T06:35:04.060Z,97501.75
2022-08-11T06:37:36.544Z,97504.56
2022-08-11T06:40:11.715Z,97505.19
2022-08-11T06:42:50.446Z,97505.50
2022-08-11T06:45:54.664Z,97498.63
2022-08-11T06:48:24.287Z,97500.28
2022-08-11T06:51:12.200Z,97502.84
2022-08-11T06:54:03.603Z,97501.88
2022-08-11T06:57:12.112Z,97498.25
2022-08-11T06:59:59.717Z,97494.72
2022-08-11T07:02:52.089Z,97492.56
2022-08-11T07:05:43.764Z,97488.47
2022-08-11T07:08:59.846Z,97487.66
2022-08-11T07:12:07.232Z,97489.97
2022-08-11T07:14:58.246Z,97479.75
2022-08-11T07:17:28.799Z,97482.78
2022-08-11T07:20:19.546Z,97474.34
2022-08-11T07:23:17.632Z,97478.47
2022-08-11T07:26:09.115Z,97474.41
2022-08-11T07:28:57.901Z,97467.28
2022-08-11T07:31:50.189Z,97476.19
2022-08-11T07:34:28.132Z,97467.78
2022-08-11T07:36:56.839Z,97471.84
2022-08-11T07:39:27.922Z,97470.09
2022-08-11T07:41:58.338Z,97474.13
2022-08-11T07:44:34.252Z,97479.00
2022-08-11T07:47:20.470Z,97478.72
2022-08-11T07:50:08.830Z,97469.56
2022-08-11T07:52:38.405Z,97468.47
2022-08-11T07:55:13.871Z,97470.31
2022-08-11T07:58:16.475Z,97468.41
2022-08-11T08:01:21.235Z,97481.97
2022-08-11T08:04:08.943Z,97471.88
2022-08-11T08:06:56.557Z,97465.50
2022-08-11T08:09:43.868Z,97466.28
2022-08-11T08:12:31.281Z,97468.19
2022-08-11T08:15:16.986Z,97458.97
2022-08-11T08:18:09.799Z,97456.56
2022-08-11T08:20:52.444Z,97454.91
2022-08-11T08:23:35.112Z,97444.97
2022-08-11T08:26:28.442Z,97463.06
2022-08-11T08:29:16.680Z,97457.66
2022-08-11T08:31:43.938Z,97457.41
2022-08-11T08:34:11.403Z,97448.75
2022-08-11T08:36:42.271Z,97452.47
2022-08-11T08:39:09.129Z,97470.09
2022-08-11T08:41:38.578Z,97464.16
2022-08-11T08:44:35.081Z,97457.09
2022-08-11T08:46:59.799Z,97453.22
2022-08-11T08:49:34.187Z,97467.75
2022-08-11T08:52:26.127Z,97462.19
2022-08-11T08:54:58.176Z,97459.63
2022-08-11T08:57:29.288Z,97451.78
2022-08-11T08:59:56.853Z,97447.72
2022-08-11T09:02:34.171Z,97456.06
2022-08-11T09:05:04.104Z,97450.63
2022-08-11T09:07:38.999Z,97449.78
2022-08-11T09:10:08.452Z,97436.53
2022-08-11T09:12:38.798Z,97448.38
2022-08-11T09:15:09.222Z,97445.41
2022-08-11T09:17:40.460Z,97438.06
2022-08-11T09:20:11.903Z,97440.53
2022-08-11T09:23:54.520Z,97449.97
2022-08-11T09:26:07.127Z,97435.75
2022-08-11T09:28:35.860Z,97432.91
2022-08-11T09:31:02.813Z,97431.28
2022-08-11T09:33:31.746Z,97423.06
2022-08-11T09:36:20.295Z,97430.72
2022-08-11T09:39:06.137Z,97432.09
2022-08-11T09:42:01.271Z,97430.31
2022-08-11T09:44:40.810Z,97424.63
2022-08-11T09:47:15.094Z,97423.34
2022-08-11T09:49:46.105Z,97431.78
2022-08-11T09:52:14.763Z,97419.06
2022-08-11T09:54:47.998Z,97408.84
2022-08-11T09:57:37.122Z,97412.63
2022-08-11T10:00:12.657Z,97418.19
2022-08-11T10:02:46.550Z,97401.47
2022-08-11T10:05:36.070Z,97408.63
2022-08-11T10:08:03.653Z,97396.97
2022-08-11T10:10:35.461Z,97390.44
2022-08-11T10:13:05.410Z,97396.94
2022-08-11T10:16:14.641Z,97393.81
2022-08-11T10:18:54.071Z,97392.59
2022-08-11T10:21:29.143Z,97392.59
2022-08-11T10:24:18.843Z,97393.31
2022-08-11T10:26:54.684Z,97392.88
2022-08-11T10:29:58.164Z,97391.50
2022-08-11T10:32:57.512Z,97387.81
2022-08-11T10:35:28.369Z,97377.94
2022-08-11T10:38:16.043Z,97379.91
2022-08-11T10:40:47.221Z,97384.38
2022-08-11T10:44:01.378Z,97376.66
2022-08-11T10:46:29.664Z,97370.69
2022-08-11T10:48:58.897Z,97373.41
2022-08-11T10:51:51.051Z,97376.31
2022-08-11T10:54:39.320Z,97376.84
2022-08-11T10:57:27.823Z,97365.88
2022-08-11T10:59:56.207Z,97365.06
2022-08-11T11:02:23.238Z,97355.91
2022-08-11T11:04:58.501Z,97361.50
2022-08-11T11:07:37.280Z,97364.94
2022-08-11T11:10:11.000Z,97362.25
2022-08-11T11:13:04.440Z,97351.31
2022-08-11T11:15:53.659Z,97330.69
2022-08-11T11:18:29.867Z,97337.78
2022-08-11T11:21:06.232Z,97340.50
2022-08-11T11:23:35.704Z,97338.31
2022-08-11T11:26:10.995Z,97336.28
2022-08-11T11:28:56.454Z,97349.78
2022-08-11T11:31:44.469Z,97335.84
2022-08-11T11:34:12.777Z,97334.50
2022-08-11T11:36:49.022Z,97329.31
2022-08-11T11:39:24.853Z,97321.34
2022-08-11T11:41:55.645Z,97330.13
2022-08-11T11:44:23.349Z,97323.91
2022-08-11T11:46:51.267Z,97336.22
2022-08-11T11:51:53.893Z,97323.91
2022-08-11T11:54:31.362Z,97315.50
2022-08-11T11:57:19.942Z,97316.09
2022-08-11T12:00:08.864Z,97316.09
2022-08-11T12:02:37.009Z,97317.13
2022-08-11T12:05:05.272Z,97318.19
2022-08-11T12:07:56.892Z,97332.19
2022-08-11T12:10:39.417Z,97322.25
2022-08-11T12:13:25.089Z,97320.72
2022-08-11T12:16:32.824Z,97315.13
2022-08-11T12:18:42.859Z,97313.63
2022-08-11T12:21:10.824Z,97304.53
2022-08-11T12:24:02.251Z,97291.41
2022-08-11T12:27:01.403Z,97289.69
2022-08-11T12:29:41.192Z,97293.25
2022-08-11T12:32:11.132Z,97284.97
2022-08-11T12:34:37.876Z,97278.00
2022-08-11T12:37:08.694Z,97274.84
2022-08-11T12:40:10.750Z,97271.03
2022-08-11T12:42:58.694Z,97265.28
2022-08-11T12:45:27.809Z,97271.75
2022-08-11T12:48:57.512Z,97273.22
2022-08-11T12:52:10.996Z,97269.03
2022-08-11T12:54:34.547Z,97278.66
2022-08-11T12:57:24.167Z,97264.66
2022-08-11T13:00:25.533Z,97264.19
2022-08-11T13:03:12.469Z,97249.16
2022-08-11T13:05:44.533Z,97257.44
2022-08-11T13:08:15.321Z,97255.31
2022-08-11T13:11:03.578Z,97247.41
2022-08-11T13:13:53.852Z,97254.19
2022-08-11T13:16:20.819Z,97247.84
2022-08-11T13:18:48.742Z,97239.03
2022-08-11T13:21:19.945Z,97246.50
2022-08-11T13:24:00.264Z,97245.94
2022-08-11T13:26:46.745Z,97257.34
2022-08-11T13:29:25.448Z,97243.97
2022-08-11T13:31:56.170Z,97239.47
2022-08-11T13:34:27.125Z,97239.56
2022-08-11T13:36:57.142Z,97232.91
2022-08-11T13:39:26.618Z,97239.78
2022-08-11T13:41:56.659Z,97233.28
2022-08-11T13:44:27.249Z,97237.00
2022-08-11T13:47:02.536Z,97226.53
2022-08-11T13:49:31.260Z,97219.97
2022-08-11T13:51:59.346Z,97220.81
2022-08-11T13:54:30.186Z,97220.19
2022-08-11T13:57:03.229Z,97223.94
2022-08-11T13:59:45.281Z,97219.06
2022-08-11T14:02:29.209Z,97219.91
2022-08-11T14:05:10.106Z,97218.09
2022-08-11T14:07:46.372Z,97210.75
2022-08-11T14:10:14.961Z,97199.03
2022-08-11T14:13:09.402Z,97197.34
2022-08-11T14:15:36.895Z,97193.75
2022-08-11T14:18:05.478Z,97197.16
2022-08-11T14:20:53.322Z,97179.16
2022-08-11T14:23:28.816Z,97184.25
2022-08-11T14:26:15.085Z,97182.34
2022-08-11T14:28:45.042Z,97185.75
2022-08-11T14:31:15.516Z,97179.63
2022-08-11T14:33:59.688Z,97172.13
2022-08-11T14:36:32.315Z,97173.44
2022-08-11T14:38:59.665Z,97176.22
2022-08-11T14:42:09.834Z,97176.31
2022-08-11T14:44:54.883Z,97169.44
2022-08-11T14:47:25.413Z,97159.41
2022-08-11T14:50:10.291Z,97161.44
2022-08-11T14:52:41.204Z,97172.44
2022-08-11T14:55:27.560Z,97165.88
2022-08-11T14:57:56.983Z,97168.34
2022-08-11T15:00:25.078Z,97159.19
2022-08-11T15:03:12.626Z,97175.56
2022-08-11T15:05:45.122Z,97174.84
2022-08-11T15:08:46.207Z,97167.41
2022-08-11T15:11:33.148Z,97172.97
2022-08-11T15:14:02.364Z,97154.66
2022-08-11T15:16:48.958Z,97152.56
2022-08-11T15:19:19.626Z,97156.88
2022-08-11T15:22:05.031Z,97158.47
2022-08-11T15:24:33.726Z,97147.81
2022-08-11T15:27:36.663Z,97147.72
2022-08-11T15:30:32.491Z,97144.94
2022-08-11T15:33:24.325Z,97145.56
2022-08-11T15:36:11.729Z,97140.78
2022-08-11T15:38:47.475Z,97142.88
2022-08-11T15:41:36.376Z,97138.25
2022-08-11T15:44:51.169Z,97142.59
2022-08-11T15:47:16.010Z,97134.72
2022-08-11T15:50:12.109Z,97140.44
2022-08-11T15:52:43.594Z,97136.84
2022-08-11T15:55:11.206Z,97138.03
2022-08-11T15:57:57.731Z,97129.88
2022-08-11T16:00:43.605Z,97137.97
2022-08-11T16:04:06.465Z,97133.22
2022-08-11T16:06:18.305Z,97129.06
2022-08-11T16:08:45.998Z,97126.19
2022-08-11T16:11:13.903Z,97127.09
2022-08-11T16:13:40.956Z,97140.50
2022-08-11T16:16:14.597Z,97123.69
2022-08-11T16:18:56.599Z,97131.69
2022-08-11T16:21:34.825Z,97123.59
2022-08-11T16:24:08.222Z,97137.69
2022-08-11T16:27:10.938Z,97123.41
2022-08-11T16:29:31.950Z,97125.22
2022-08-11T16:32:32.331Z,97128.06
2022-08-11T16:35:26.378Z,97111.03
2022-08-11T16:38:12.830Z,97116.19
2022-08-11T16:40:41.709Z,97117.34
2022-08-11T16:43:31.041Z,97111.38
2022-08-11T16:46:18.150Z,97113.50
2022-08-11T16:48:48.220Z,97110.50
2022-08-11T16:51:15.739Z,97115.31
2022-08-11T16:53:54.710Z,97108.47
2022-08-11T16:56:35.614Z,97120.75
2022-08-11T16:59:17.645Z,97110.75
2022-08-11T17:02:12.683Z,97114.38
2022-08-11T17:05:12.152Z,97121.34
2022-08-11T17:08:01.314Z,97115.66
2022-08-11T17:11:21.346Z,97116.91
2022-08-11T17:14:03.946Z,97115.84
2022-08-11T17:16:39.341Z,97107.19
2022-08-11T17:19:18.461Z,97104.75
2022-08-11T17:22:24.652Z,97102.34
2022-08-11T17:24:51.824Z,97109.13
2022-08-11T17:27:21.158Z,97108.38
2022-08-11T17:29:54.893Z,97108.38
2022-08-11T17:32:56.237Z,97102.53
2022-08-11T17:35:31.146Z,97105.50
2022-08-11T17:38:10.078Z,97106.38
2022-08-11T17:40:39.509Z,97106.56
2022-08-11T17:43:28.943Z,97118.00
2022-08-11T17:46:16.304Z,97124.63
2022-08-11T17:48:47.723Z,97124.13
2022-08-11T17:51:39.429Z,97125.41
2022-08-11T17:54:26.008Z,97132.44
2022-08-11T17:57:20.297Z,97130.59
2022-08-11T17:59:55.318Z,97134.13
2022-08-11T18:03:01.214Z,97140.59
2022-08-11T18:05:34.355Z,97143.28
2022-08-11T18:08:23.580Z,97140.03
2022-08-11T18:11:09.160Z,97147.28
2022-08-11T18:13:57.055Z,97148.63
2022-08-11T18:16:42.935Z,97155.59
2022-08-11T18:19:30.903Z,97156.13
2022-08-11T18:22:27.944Z,97154.47
2022-08-11T18:25:20.247Z,97162.03
2022-08-11T18:28:07.295Z,97170.31
2022-08-11T18:31:03.484Z,97162.53
2022-08-11T18:34:13.851Z,97168.34
2022-08-11T18:37:21.769Z,97168.88
2022-08-11T18:40:15.847Z,97174.47
2022-08-11T18:43:03.892Z,97173.56
2022-08-11T18:46:05.270Z,97181.31
2022-08-11T18:48:54.125Z,97181.50
2022-08-11T18:51:41.646Z,97183.16
2022-08-11T18:54:29.989Z,97186.88
2022-08-11T18:57:18.409Z,97192.50
2022-08-11T19:00:06.032Z,97193.75
2022-08-11T19:02:55.512Z,97200.06
2022-08-11T19:06:31.815Z,97199.94
2022-08-11T19:08:53.714Z,97195.66
2022-08-11T19:11:42.636Z,97205.44
2022-08-11T19:14:31.222Z,97201.88
2022-08-11T19:17:44.683Z,97204.56
2022-08-11T19:20:27.052Z,97207.47
2022-08-11T19:23:14.991Z,97208.16
2022-08-11T19:26:03.814Z,97212.41
2022-08-11T19:28:50.670Z,97219.91
2022-08-11T19:31:38.850Z,97221.53
2022-08-11T19:34:28.707Z,97220.59
2022-08-11T19:37:15.189Z,97227.94
2022-08-11T19:40:01.332Z,97231.63
2022-08-11T19:42:47.802Z,97231.00
2022-08-11T19:45:34.834Z,97225.75
2022-08-11T19:48:35.405Z,97241.63
2022-08-11T19:51:20.965Z,97233.44
2022-08-11T19:54:08.084Z,97234.63
2022-08-11T19:56:55.266Z,97236.53
2022-08-11T19:59:41.897Z,97241.19
2022-08-11T20:02:28.582Z,97249.38
2022-08-11T20:05:13.945Z,97242.88
2022-08-11T20:07:59.827Z,97248.09
2022-08-11T20:10:48.127Z,97249.53
2022-08-11T20:13:34.576Z,97250.66
2022-08-11T20:16:22.159Z,97256.44
2022-08-11T20:19:09.640Z,97255.84
2022-08-11T20:21:57.852Z,97262.31
2022-08-11T20:24:43.676Z,97257.22
2022-08-11T20:27:30.092Z,97266.19
2022-08-11T20:30:18.039Z,97269.78
2022-08-11T20:33:03.630Z,97268.44
2022-08-11T20:35:51.980Z,97267.06
2022-08-11T20:38:41.815Z,97269.34
2022-08-11T20:41:30.289Z,97260.25
2022-08-11T20:44:17.618Z,97256.88
2022-08-11T20:47:05.105Z,97270.88
2022-08-11T20:49:59.359Z,97266.94
2022-08-11T20:52:48.990Z,97267.28
2022-08-11T20:55:46.420Z,97268.09
2022-08-11T21:01:45.551Z,97267.00
2022-08-11T21:04:32.514Z,97270.03
2022-08-11T21:07:28.507Z,97266.56
2022-08-11T21:10:23.233Z,97268.66
2022-08-11T21:13:26.116Z,97278.47
2022-08-11T21:16:26.614Z,97272.91
2022-08-11T21:19:59.872Z,97276.69
2022-08-11T21:23:09.294Z,97284.22
2022-08-11T21:26:06.591Z,97290.50
2022-08-11T21:28:54.875Z,97286.19
2022-08-11T21:31:42.291Z,97282.63
2022-08-11T21:34:30.202Z,97286.13
2022-08-11T21:37:18.889Z,97280.06
2022-08-11T21:40:07.245Z,97283.91
2022-08-11T21:42:56.205Z,97288.34
2022-08-11T21:45:42.419Z,97280.13
2022-08-11T21:48:30.383Z,97294.50
2022-08-11T21:51:15.846Z,97285.81
2022-08-11T21:54:01.842Z,97283.22
2022-08-11T21:56:49.723Z,97292.88
2022-08-11T21:59:40.825Z,97290.25
2022-08-11T22:02:26.506Z,97291.34
2022-08-11T22:05:12.537Z,97292.28
2022-08-11T22:07:58.360Z,97293.53
2022-08-11T22:10:43.486Z,97295.84
2022-08-11T22:13:31.958Z,97291.63
2022-08-11T22:16:19.174Z,97298.56
2022-08-11T22:19:09.818Z,97290.75
2022-08-11T22:22:01.527Z,97284.06
2022-08-11T22:24:51.359Z,97279.78
2022-08-11T22:27:36.802Z,97279.28
2022-08-11T22:30:24.305Z,97276.84
2022-08-11T22:33:10.172Z,97277.47
2022-08-11T22:36:00.158Z,97281.19
2022-08-11T22:38:46.087Z,97283.03
2022-08-11T22:41:32.077Z,97280.22
2022-08-11T22:44:17.268Z,97295.41
2022-08-11T22:47:03.763Z,97288.00
2022-08-11T22:49:57.293Z,97288.00
2022-08-11T22:52:45.097Z,97284.59
2022-08-11T22:55:31.800Z,97285.88
2022-08-11T22:58:17.361Z,97282.81
2022-08-11T23:01:02.897Z,97274.19
2022-08-11T23:03:50.821Z,97276.91
2022-08-11T23:06:38.137Z,97280.78
2022-08-11T23:09:25.149Z,97277.66
2022-08-11T23:12:10.819Z,97288.72
2022-08-11T23:14:58.352Z,97290.53
2022-08-11T23:17:45.313Z,97287.03
2022-08-11T23:20:43.300Z,97284.81
2022-08-11T23:23:38.199Z,97278.97
2022-08-11T23:26:24.233Z,97281.84
2022-08-11T23:29:11.205Z,97288.59
2022-08-11T23:31:57.372Z,97278.78
2022-08-11T23:35:04.497Z,97283.69
2022-08-11T23:37:51.196Z,97273.69
2022-08-11T23:40:36.642Z,97274.94
2022-08-11T23:43:22.281Z,97269.84
2022-08-11T23:46:08.814Z,97274.56
2022-08-11T23:48:56.811Z,97275.78
2022-08-11T23:51:44.325Z,97265.59
2022-08-11T23:54:35.106Z,97266.81
2022-08-11T23:57:22.918Z,97261.09
